sensor_id;sensor_type;location;lat;lon;timestamp;pressure;altitude;pressure_sealevel;temperature;humidity
54465;BME280;40374;49.480;20.016;2023-08-17T00:02:20;95339.00;;;22.60;100.00
54465;BME280;40374;49.480;20.016;2023-08-17T00:04:48;95336.41;;;22.52;100.00
54465;BME280;40374;49.480;20.016;2023-08-17T00:07:15;95336.03;;;22.53;100.00
54465;BME280;40374;49.480;20.016;2023-08-17T00:09:43;95349.53;;;22.46;100.00
54465;BME280;40374;49.480;20.016;2023-08-17T00:12:10;95354.38;;;22.37;100.00
54465;BME280;40374;49.480;20.016;2023-08-17T00:14:37;95352.25;;;22.58;100.00
54465;BME280;40374;49.480;20.016;2023-08-17T00:17:05;95357.03;;;22.61;100.00
54465;BME280;40374;49.480;20.016;2023-08-17T00:19:33;95355.00;;;22.58;100.00
54465;BME280;40374;49.480;20.016;2023-08-17T00:22:00;95357.53;;;22.51;100.00
54465;BME280;40374;49.480;20.016;2023-08-17T00:24:27;95354.09;;;22.54;100.00
54465;BME280;40374;49.480;20.016;2023-08-17T00:26:55;95356.13;;;22.57;100.00
54465;BME280;40374;49.480;20.016;2023-08-17T00:29:23;95354.06;;;22.66;100.00
54465;BME280;40374;49.480;20.016;2023-08-17T00:31:50;95358.19;;;22.60;100.00
54465;BME280;40374;49.480;20.016;2023-08-17T00:34:19;95350.44;;;22.50;100.00
54465;BME280;40374;49.480;20.016;2023-08-17T00:36:46;95361.13;;;22.67;100.00
54465;BME280;40374;49.480;20.016;2023-08-17T00:39:14;95352.22;;;22.70;100.00
54465;BME280;40374;49.480;20.016;2023-08-17T00:41:41;95352.44;;;22.65;100.00
54465;BME280;40374;49.480;20.016;2023-08-17T00:44:08;95360.78;;;22.69;100.00
54465;BME280;40374;49.480;20.016;2023-08-17T00:46:36;95353.81;;;22.72;100.00
54465;BME280;40374;49.480;20.016;2023-08-17T00:49:04;95356.78;;;22.79;100.00
54465;BME280;40374;49.480;20.016;2023-08-17T00:51:31;95363.34;;;22.62;100.00
54465;BME280;40374;49.480;20.016;2023-08-17T00:53:59;95364.50;;;22.36;100.00
54465;BME280;40374;49.480;20.016;2023-08-17T00:56:28;95368.53;;;22.26;100.00
54465;BME280;40374;49.480;20.016;2023-08-17T00:58:56;95371.38;;;22.18;100.00
54465;BME280;40374;49.480;20.016;2023-08-17T01:01:23;95374.81;;;22.27;100.00
54465;BME280;40374;49.480;20.016;2023-08-17T01:03:51;95377.22;;;22.41;100.00
54465;BME280;40374;49.480;20.016;2023-08-17T01:06:18;95376.06;;;22.42;100.00
54465;BME280;40374;49.480;20.016;2023-08-17T01:08:46;95379.13;;;22.40;100.00
54465;BME280;40374;49.480;20.016;2023-08-17T01:11:17;95380.03;;;22.44;100.00
54465;BME280;40374;49.480;20.016;2023-08-17T01:13:49;95369.19;;;22.48;100.00
54465;BME280;40374;49.480;20.016;2023-08-17T01:16:21;95363.03;;;22.51;100.00
54465;BME280;40374;49.480;20.016;2023-08-17T01:18:50;95356.06;;;22.41;100.00
54465;BME280;40374;49.480;20.016;2023-08-17T01:21:18;95350.34;;;22.34;100.00
54465;BME280;40374;49.480;20.016;2023-08-17T01:23:48;95357.31;;;22.19;100.00
54465;BME280;40374;49.480;20.016;2023-08-17T01:26:16;95361.09;;;22.02;100.00
54465;BME280;40374;49.480;20.016;2023-08-17T01:28:44;95358.28;;;21.99;100.00
54465;BME280;40374;49.480;20.016;2023-08-17T01:33:40;95342.88;;;21.82;100.00
54465;BME280;40374;49.480;20.016;2023-08-17T01:36:13;95338.06;;;21.66;100.00
54465;BME280;40374;49.480;20.016;2023-08-17T01:38:45;95340.56;;;21.59;100.00
54465;BME280;40374;49.480;20.016;2023-08-17T01:41:13;95355.28;;;21.55;100.00
54465;BME280;40374;49.480;20.016;2023-08-17T01:43:43;95351.84;;;21.58;100.00
54465;BME280;40374;49.480;20.016;2023-08-17T01:46:15;95354.84;;;21.53;100.00
54465;BME280;40374;49.480;20.016;2023-08-17T01:48:44;95344.88;;;21.48;100.00
54465;BME280;40374;49.480;20.016;2023-08-17T01:51:15;95344.16;;;21.39;100.00
54465;BME280;40374;49.480;20.016;2023-08-17T01:53:43;95346.91;;;21.39;100.00
54465;BME280;40374;49.480;20.016;2023-08-17T01:56:10;95342.03;;;21.44;100.00
54465;BME280;40374;49.480;20.016;2023-08-17T01:58:38;95340.63;;;21.38;100.00
54465;BME280;40374;49.480;20.016;2023-08-17T02:01:05;95340.56;;;21.47;100.00
54465;BME280;40374;49.480;20.016;2023-08-17T02:03:33;95336.34;;;21.49;100.00
54465;BME280;40374;49.480;20.016;2023-08-17T02:06:00;95337.69;;;21.43;100.00
54465;BME280;40374;49.480;20.016;2023-08-17T02:08:27;95331.88;;;21.45;100.00
54465;BME280;40374;49.480;20.016;2023-08-17T02:10:55;95336.13;;;21.55;100.00
54465;BME280;40374;49.480;20.016;2023-08-17T02:13:22;95341.50;;;21.63;100.00
54465;BME280;40374;49.480;20.016;2023-08-17T02:15:49;95339.16;;;21.41;100.00
54465;BME280;40374;49.480;20.016;2023-08-17T02:18:17;95341.28;;;21.35;100.00
54465;BME280;40374;49.480;20.016;2023-08-17T02:20:44;95339.69;;;21.22;100.00
54465;BME280;40374;49.480;20.016;2023-08-17T02:23:12;95338.50;;;21.44;100.00
54465;BME280;40374;49.480;20.016;2023-08-17T02:25:39;95337.03;;;21.46;100.00
54465;BME280;40374;49.480;20.016;2023-08-17T02:28:07;95341.81;;;21.49;100.00
54465;BME280;40374;49.480;20.016;2023-08-17T02:30:34;95345.13;;;21.43;100.00
54465;BME280;40374;49.480;20.016;2023-08-17T02:33:02;95344.09;;;21.47;100.00
54465;BME280;40374;49.480;20.016;2023-08-17T02:35:29;95335.75;;;21.44;100.00
54465;BME280;40374;49.480;20.016;2023-08-17T02:37:59;95343.16;;;21.43;100.00
54465;BME280;40374;49.480;20.016;2023-08-17T02:40:26;95335.59;;;21.28;100.00
54465;BME280;40374;49.480;20.016;2023-08-17T02:42:54;95340.22;;;21.48;100.00
54465;BME280;40374;49.480;20.016;2023-08-17T02:45:22;95338.00;;;21.29;100.00
54465;BME280;40374;49.480;20.016;2023-08-17T02:47:49;95343.81;;;21.28;100.00
54465;BME280;40374;49.480;20.016;2023-08-17T02:50:16;95342.66;;;21.17;100.00
54465;BME280;40374;49.480;20.016;2023-08-17T02:52:44;95339.09;;;21.16;100.00
54465;BME280;40374;49.480;20.016;2023-08-17T02:55:11;95347.81;;;20.97;100.00
54465;BME280;40374;49.480;20.016;2023-08-17T02:57:39;95344.63;;;20.95;100.00
54465;BME280;40374;49.480;20.016;2023-08-17T03:00:06;95351.59;;;20.72;100.00
54465;BME280;40374;49.480;20.016;2023-08-17T03:02:34;95354.31;;;20.93;100.00
54465;BME280;40374;49.480;20.016;2023-08-17T03:05:02;95357.72;;;21.02;100.00
54465;BME280;40374;49.480;20.016;2023-08-17T03:07:30;95360.38;;;20.98;100.00
54465;BME280;40374;49.480;20.016;2023-08-17T03:09:57;95361.44;;;20.85;100.00
54465;BME280;40374;49.480;20.016;2023-08-17T03:12:25;95363.69;;;20.83;100.00
54465;BME280;40374;49.480;20.016;2023-08-17T03:14:52;95363.19;;;20.90;100.00
54465;BME280;40374;49.480;20.016;2023-08-17T03:17:20;95356.63;;;21.03;100.00
54465;BME280;40374;49.480;20.016;2023-08-17T03:19:47;95359.25;;;21.12;100.00
54465;BME280;40374;49.480;20.016;2023-08-17T03:22:16;95363.34;;;21.05;100.00
54465;BME280;40374;49.480;20.016;2023-08-17T03:24:43;95362.38;;;20.89;100.00
54465;BME280;40374;49.480;20.016;2023-08-17T03:27:10;95371.19;;;20.74;100.00
54465;BME280;40374;49.480;20.016;2023-08-17T03:29:38;95364.78;;;20.70;100.00
54465;BME280;40374;49.480;20.016;2023-08-17T03:32:06;95366.53;;;20.74;100.00
54465;BME280;40374;49.480;20.016;2023-08-17T03:34:33;95363.22;;;20.68;100.00
54465;BME280;40374;49.480;20.016;2023-08-17T03:37:01;95362.97;;;20.95;100.00
54465;BME280;40374;49.480;20.016;2023-08-17T03:39:29;95364.22;;;20.97;100.00
54465;BME280;40374;49.480;20.016;2023-08-17T03:41:56;95364.50;;;21.04;100.00
54465;BME280;40374;49.480;20.016;2023-08-17T03:44:24;95361.94;;;20.99;100.00
54465;BME280;40374;49.480;20.016;2023-08-17T03:46:51;95367.84;;;20.89;100.00
54465;BME280;40374;49.480;20.016;2023-08-17T03:49:19;95363.03;;;20.86;100.00
54465;BME280;40374;49.480;20.016;2023-08-17T03:51:47;95362.44;;;20.80;100.00
54465;BME280;40374;49.480;20.016;2023-08-17T03:54:14;95363.44;;;20.55;100.00
54465;BME280;40374;49.480;20.016;2023-08-17T03:56:41;95369.31;;;20.65;100.00
54465;BME280;40374;49.480;20.016;2023-08-17T03:59:09;95352.53;;;20.76;100.00
54465;BME280;40374;49.480;20.016;2023-08-17T04:01:36;95354.78;;;20.74;100.00
54465;BME280;40374;49.480;20.016;2023-08-17T04:04:03;95358.66;;;20.73;100.00
54465;BME280;40374;49.480;20.016;2023-08-17T04:06:31;95359.00;;;20.71;100.00
54465;BME280;40374;49.480;20.016;2023-08-17T04:08:58;95364.38;;;20.80;100.00
54465;BME280;40374;49.480;20.016;2023-08-17T04:11:26;95367.44;;;20.78;100.00
54465;BME280;40374;49.480;20.016;2023-08-17T04:13:53;95367.78;;;20.98;100.00
54465;BME280;40374;49.480;20.016;2023-08-17T04:16:20;95367.00;;;21.09;100.00
54465;BME280;40374;49.480;20.016;2023-08-17T04:18:47;95369.56;;;21.27;100.00
54465;BME280;40374;49.480;20.016;2023-08-17T04:21:15;95365.00;;;21.31;100.00
54465;BME280;40374;49.480;20.016;2023-08-17T04:23:42;95368.00;;;21.38;100.00
54465;BME280;40374;49.480;20.016;2023-08-17T04:26:10;95371.59;;;21.51;100.00
54465;BME280;40374;49.480;20.016;2023-08-17T04:28:37;95369.88;;;21.46;100.00
54465;BME280;40374;49.480;20.016;2023-08-17T04:31:05;95366.91;;;21.52;100.00
54465;BME280;40374;49.480;20.016;2023-08-17T04:33:36;95368.00;;;21.38;100.00
54465;BME280;40374;49.480;20.016;2023-08-17T04:36:03;95362.19;;;21.40;100.00
54465;BME280;40374;49.480;20.016;2023-08-17T04:38:31;95369.59;;;21.39;100.00
54465;BME280;40374;49.480;20.016;2023-08-17T04:40:59;95375.75;;;21.36;100.00
54465;BME280;40374;49.480;20.016;2023-08-17T04:43:26;95383.88;;;21.45;100.00
54465;BME280;40374;49.480;20.016;2023-08-17T04:45:53;95381.41;;;21.31;100.00
54465;BME280;40374;49.480;20.016;2023-08-17T04:48:21;95381.13;;;21.12;100.00
54465;BME280;40374;49.480;20.016;2023-08-17T04:50:50;95382.06;;;21.16;100.00
54465;BME280;40374;49.480;20.016;2023-08-17T04:53:18;95375.47;;;21.29;100.00
54465;BME280;40374;49.480;20.016;2023-08-17T04:55:45;95382.28;;;21.11;100.00
54465;BME280;40374;49.480;20.016;2023-08-17T04:58:12;95374.22;;;20.93;100.00
54465;BME280;40374;49.480;20.016;2023-08-17T05:00:40;95385.72;;;21.20;100.00
54465;BME280;40374;49.480;20.016;2023-08-17T05:03:08;95374.88;;;21.11;100.00
54465;BME280;40374;49.480;20.016;2023-08-17T05:05:46;95389.56;;;21.06;100.00
54465;BME280;40374;49.480;20.016;2023-08-17T05:08:13;95380.03;;;21.13;100.00
54465;BME280;40374;49.480;20.016;2023-08-17T05:10:41;95386.75;;;21.15;100.00
54465;BME280;40374;49.480;20.016;2023-08-17T05:13:08;95390.84;;;21.42;100.00
54465;BME280;40374;49.480;20.016;2023-08-17T05:15:37;95377.38;;;21.49;100.00
54465;BME280;40374;49.480;20.016;2023-08-17T05:18:07;95380.41;;;21.94;100.00
54465;BME280;40374;49.480;20.016;2023-08-17T05:20:35;95383.47;;;21.92;100.00
54465;BME280;40374;49.480;20.016;2023-08-17T05:23:02;95384.16;;;21.77;100.00
54465;BME280;40374;49.480;20.016;2023-08-17T05:25:29;95387.50;;;22.07;100.00
54465;BME280;40374;49.480;20.016;2023-08-17T05:27:57;95377.91;;;22.25;100.00
54465;BME280;40374;49.480;20.016;2023-08-17T05:30:24;95382.00;;;22.32;100.00
54465;BME280;40374;49.480;20.016;2023-08-17T05:32:52;95379.06;;;22.24;100.00
54465;BME280;40374;49.480;20.016;2023-08-17T05:35:20;95386.34;;;22.33;100.00
54465;BME280;40374;49.480;20.016;2023-08-17T05:37:49;95378.91;;;22.33;100.00
54465;BME280;40374;49.480;20.016;2023-08-17T05:40:17;95382.31;;;22.42;100.00
54465;BME280;40374;49.480;20.016;2023-08-17T05:42:44;95381.53;;;22.42;100.00
54465;BME280;40374;49.480;20.016;2023-08-17T05:45:12;95376.31;;;22.77;100.00
54465;BME280;40374;49.480;20.016;2023-08-17T05:47:39;95374.50;;;22.97;100.00
54465;BME280;40374;49.480;20.016;2023-08-17T05:50:07;95376.91;;;22.99;100.00
54465;BME280;40374;49.480;20.016;2023-08-17T05:52:34;95375.31;;;23.10;100.00
54465;BME280;40374;49.480;20.016;2023-08-17T05:55:02;95375.50;;;23.17;100.00
54465;BME280;40374;49.480;20.016;2023-08-17T05:57:29;95377.84;;;23.31;100.00
54465;BME280;40374;49.480;20.016;2023-08-17T05:59:56;95383.22;;;23.43;100.00
54465;BME280;40374;49.480;20.016;2023-08-17T06:02:23;95386.19;;;23.50;100.00
54465;BME280;40374;49.480;20.016;2023-08-17T06:04:51;95379.00;;;23.46;100.00
54465;BME280;40374;49.480;20.016;2023-08-17T06:07:18;95378.84;;;23.55;100.00
54465;BME280;40374;49.480;20.016;2023-08-17T06:09:46;95371.47;;;23.75;100.00
54465;BME280;40374;49.480;20.016;2023-08-17T06:12:13;95366.03;;;23.90;100.00
54465;BME280;40374;49.480;20.016;2023-08-17T06:14:41;95367.31;;;24.13;100.00
54465;BME280;40374;49.480;20.016;2023-08-17T06:17:09;95368.38;;;24.08;100.00
54465;BME280;40374;49.480;20.016;2023-08-17T06:19:36;95370.63;;;24.02;100.00
54465;BME280;40374;49.480;20.016;2023-08-17T06:22:04;95365.81;;;24.15;100.00
54465;BME280;40374;49.480;20.016;2023-08-17T06:24:31;95363.38;;;24.29;100.00
54465;BME280;40374;49.480;20.016;2023-08-17T06:26:58;95365.41;;;24.48;100.00
54465;BME280;40374;49.480;20.016;2023-08-17T06:29:26;95364.84;;;24.59;100.00
54465;BME280;40374;49.480;20.016;2023-08-17T06:31:53;95362.66;;;24.48;100.00
54465;BME280;40374;49.480;20.016;2023-08-17T06:34:22;95365.22;;;24.57;100.00
54465;BME280;40374;49.480;20.016;2023-08-17T06:36:58;95365.72;;;24.63;100.00
54465;BME280;40374;49.480;20.016;2023-08-17T06:39:27;95363.91;;;24.51;100.00
54465;BME280;40374;49.480;20.016;2023-08-17T06:41:54;95372.94;;;24.51;100.00
54465;BME280;40374;49.480;20.016;2023-08-17T06:44:21;95365.81;;;24.86;100.00
54465;BME280;40374;49.480;20.016;2023-08-17T06:46:49;95375.72;;;24.71;100.00
54465;BME280;40374;49.480;20.016;2023-08-17T06:49:16;95375.88;;;24.78;100.00
54465;BME280;40374;49.480;20.016;2023-08-17T06:51:43;95366.97;;;24.65;100.00
54465;BME280;40374;49.480;20.016;2023-08-17T06:54:11;95367.41;;;25.26;100.00
54465;BME280;40374;49.480;20.016;2023-08-17T06:56:38;95368.94;;;24.84;100.00
54465;BME280;40374;49.480;20.016;2023-08-17T06:59:06;95369.41;;;24.70;100.00
54465;BME280;40374;49.480;20.016;2023-08-17T07:01:33;95360.94;;;24.99;100.00
54465;BME280;40374;49.480;20.016;2023-08-17T07:04:01;95360.50;;;25.36;100.00
54465;BME280;40374;49.480;20.016;2023-08-17T07:06:28;95360.63;;;25.66;100.00
54465;BME280;40374;49.480;20.016;2023-08-17T07:08:56;95365.19;;;25.78;100.00
54465;BME280;40374;49.480;20.016;2023-08-17T07:11:23;95361.03;;;25.87;90.74
54465;BME280;40374;49.480;20.016;2023-08-17T07:13:51;95368.06;;;26.08;100.00
54465;BME280;40374;49.480;20.016;2023-08-17T07:16:18;95360.56;;;26.31;99.59
54465;BME280;40374;49.480;20.016;2023-08-17T07:18:46;95364.25;;;26.43;96.04
54465;BME280;40374;49.480;20.016;2023-08-17T07:21:13;95368.81;;;26.58;88.88
54465;BME280;40374;49.480;20.016;2023-08-17T07:23:43;95366.69;;;26.75;93.80
54465;BME280;40374;49.480;20.016;2023-08-17T07:26:11;95356.38;;;27.02;93.73
54465;BME280;40374;49.480;20.016;2023-08-17T07:28:39;95364.47;;;27.18;93.10
54465;BME280;40374;49.480;20.016;2023-08-17T07:31:06;95361.59;;;27.44;88.28
54465;BME280;40374;49.480;20.016;2023-08-17T07:33:34;95358.00;;;27.37;84.43
54465;BME280;40374;49.480;20.016;2023-08-17T07:36:01;95360.28;;;27.31;79.63
54465;BME280;40374;49.480;20.016;2023-08-17T07:38:29;95361.59;;;27.10;85.47
54465;BME280;40374;49.480;20.016;2023-08-17T07:40:56;95364.34;;;27.10;84.33
54465;BME280;40374;49.480;20.016;2023-08-17T07:43:24;95365.88;;;27.38;88.03
54465;BME280;40374;49.480;20.016;2023-08-17T07:45:55;95367.53;;;27.43;77.52
54465;BME280;40374;49.480;20.016;2023-08-17T07:48:22;95364.50;;;27.55;76.90
54465;BME280;40374;49.480;20.016;2023-08-17T07:50:50;95358.25;;;27.65;72.42
54465;BME280;40374;49.480;20.016;2023-08-17T07:53:18;95366.84;;;27.57;72.55
54465;BME280;40374;49.480;20.016;2023-08-17T07:55:46;95364.50;;;27.59;80.25
54465;BME280;40374;49.480;20.016;2023-08-17T07:58:15;95361.19;;;27.83;77.24
54465;BME280;40374;49.480;20.016;2023-08-17T08:00:43;95348.47;;;28.16;78.01
54465;BME280;40374;49.480;20.016;2023-08-17T08:03:10;95349.63;;;28.15;70.00
54465;BME280;40374;49.480;20.016;2023-08-17T08:05:38;95346.88;;;28.22;75.59
54465;BME280;40374;49.480;20.016;2023-08-17T08:08:05;95344.63;;;28.39;75.78
54465;BME280;40374;49.480;20.016;2023-08-17T08:10:33;95337.69;;;28.66;72.69
54465;BME280;40374;49.480;20.016;2023-08-17T08:13:00;95332.72;;;29.01;72.49
54465;BME280;40374;49.480;20.016;2023-08-17T08:15:27;95320.53;;;29.20;69.92
54465;BME280;40374;49.480;20.016;2023-08-17T08:17:55;95316.56;;;29.21;70.61
54465;BME280;40374;49.480;20.016;2023-08-17T08:20:22;95313.47;;;29.51;70.27
54465;BME280;40374;49.480;20.016;2023-08-17T08:22:50;95307.19;;;29.86;66.76
54465;BME280;40374;49.480;20.016;2023-08-17T08:25:17;95307.94;;;30.19;67.82
54465;BME280;40374;49.480;20.016;2023-08-17T08:27:45;95305.19;;;30.23;62.58
54465;BME280;40374;49.480;20.016;2023-08-17T08:30:12;95302.00;;;30.31;65.34
54465;BME280;40374;49.480;20.016;2023-08-17T08:32:39;95310.28;;;30.53;63.07
54465;BME280;40374;49.480;20.016;2023-08-17T08:35:07;95315.00;;;30.67;60.30
54465;BME280;40374;49.480;20.016;2023-08-17T08:37:35;95305.50;;;30.61;58.44
54465;BME280;40374;49.480;20.016;2023-08-17T08:40:02;95312.66;;;30.62;60.12
54465;BME280;40374;49.480;20.016;2023-08-17T08:42:30;95318.97;;;30.73;57.90
54465;BME280;40374;49.480;20.016;2023-08-17T08:44:57;95315.00;;;30.63;56.30
54465;BME280;40374;49.480;20.016;2023-08-17T08:47:25;95314.22;;;30.66;57.01
54465;BME280;40374;49.480;20.016;2023-08-17T08:49:59;95314.28;;;30.41;55.74
54465;BME280;40374;49.480;20.016;2023-08-17T08:52:34;95321.06;;;29.97;56.74
54465;BME280;40374;49.480;20.016;2023-08-17T08:55:09;95325.44;;;29.94;56.06
54465;BME280;40374;49.480;20.016;2023-08-17T08:57:38;95328.53;;;29.46;55.37
54465;BME280;40374;49.480;20.016;2023-08-17T09:00:06;95330.44;;;29.21;56.14
54465;BME280;40374;49.480;20.016;2023-08-17T09:02:35;95358.28;;;28.69;58.33
54465;BME280;40374;49.480;20.016;2023-08-17T09:05:04;95388.91;;;28.35;59.82
54465;BME280;40374;49.480;20.016;2023-08-17T09:07:32;95421.16;;;27.79;62.74
54465;BME280;40374;49.480;20.016;2023-08-17T09:10:01;95425.09;;;27.10;80.04
54465;BME280;40374;49.480;20.016;2023-08-17T09:12:30;95419.19;;;26.28;90.83
54465;BME280;40374;49.480;20.016;2023-08-17T09:15:07;95418.38;;;25.59;100.00
54465;BME280;40374;49.480;20.016;2023-08-17T09:17:35;95430.56;;;25.19;100.00
54465;BME280;40374;49.480;20.016;2023-08-17T09:20:02;95418.91;;;24.86;100.00
54465;BME280;40374;49.480;20.016;2023-08-17T09:22:40;95411.69;;;24.62;100.00
54465;BME280;40374;49.480;20.016;2023-08-17T09:25:11;95407.50;;;24.68;100.00
54465;BME280;40374;49.480;20.016;2023-08-17T09:27:49;95398.38;;;24.64;100.00
54465;BME280;40374;49.480;20.016;2023-08-17T09:30:21;95406.09;;;24.59;100.00
54465;BME280;40374;49.480;20.016;2023-08-17T09:32:49;95406.19;;;24.62;100.00
54465;BME280;40374;49.480;20.016;2023-08-17T09:35:17;95393.25;;;24.47;100.00
54465;BME280;40374;49.480;20.016;2023-08-17T09:37:45;95385.69;;;24.60;100.00
54465;BME280;40374;49.480;20.016;2023-08-17T09:40:12;95380.63;;;24.62;100.00
54465;BME280;40374;49.480;20.016;2023-08-17T09:42:42;95380.72;;;24.85;100.00
54465;BME280;40374;49.480;20.016;2023-08-17T09:45:10;95384.22;;;25.21;100.00
54465;BME280;40374;49.480;20.016;2023-08-17T09:47:42;95373.31;;;25.47;100.00
54465;BME280;40374;49.480;20.016;2023-08-17T09:50:10;95379.59;;;25.90;100.00
54465;BME280;40374;49.480;20.016;2023-08-17T09:52:38;95373.09;;;26.29;100.00
54465;BME280;40374;49.480;20.016;2023-08-17T09:55:07;95384.72;;;26.68;100.00
54465;BME280;40374;49.480;20.016;2023-08-17T09:57:37;95380.63;;;26.85;100.00
54465;BME280;40374;49.480;20.016;2023-08-17T10:00:05;95389.81;;;26.66;100.00
54465;BME280;40374;49.480;20.016;2023-08-17T10:02:34;95385.97;;;26.48;100.00
54465;BME280;40374;49.480;20.016;2023-08-17T10:05:02;95386.22;;;26.36;100.00
54465;BME280;40374;49.480;20.016;2023-08-17T10:07:33;95396.13;;;25.90;100.00
54465;BME280;40374;49.480;20.016;2023-08-17T10:10:04;95397.19;;;25.63;100.00
54465;BME280;40374;49.480;20.016;2023-08-17T10:12:51;95390.91;;;25.43;100.00
54465;BME280;40374;49.480;20.016;2023-08-17T10:15:21;95390.72;;;25.51;100.00
54465;BME280;40374;49.480;20.016;2023-08-17T10:20:21;95400.28;;;25.38;100.00
54465;BME280;40374;49.480;20.016;2023-08-17T10:22:56;95418.69;;;25.54;100.00
54465;BME280;40374;49.480;20.016;2023-08-17T10:25:26;95407.53;;;25.46;100.00
54465;BME280;40374;49.480;20.016;2023-08-17T10:27:55;95402.56;;;25.33;100.00
54465;BME280;40374;49.480;20.016;2023-08-17T10:30:26;95410.00;;;25.32;100.00
54465;BME280;40374;49.480;20.016;2023-08-17T10:32:54;95415.78;;;25.07;100.00
54465;BME280;40374;49.480;20.016;2023-08-17T10:35:22;95415.72;;;25.04;100.00
54465;BME280;40374;49.480;20.016;2023-08-17T10:37:50;95438.09;;;25.02;100.00
54465;BME280;40374;49.480;20.016;2023-08-17T10:40:24;95439.81;;;24.91;100.00
54465;BME280;40374;49.480;20.016;2023-08-17T10:42:53;95447.03;;;24.80;100.00
54465;BME280;40374;49.480;20.016;2023-08-17T10:45:25;95441.78;;;24.55;100.00
54465;BME280;40374;49.480;20.016;2023-08-17T10:48:24;95441.50;;;24.60;100.00
54465;BME280;40374;49.480;20.016;2023-08-17T10:51:00;95441.34;;;24.53;100.00
54465;BME280;40374;49.480;20.016;2023-08-17T10:53:33;95442.56;;;24.71;100.00
54465;BME280;40374;49.480;20.016;2023-08-17T10:56:01;95463.41;;;24.57;100.00
54465;BME280;40374;49.480;20.016;2023-08-17T10:58:35;95471.50;;;24.65;100.00
54465;BME280;40374;49.480;20.016;2023-08-17T11:01:03;95479.84;;;24.53;100.00
54465;BME280;40374;49.480;20.016;2023-08-17T11:03:30;95480.34;;;24.43;100.00
54465;BME280;40374;49.480;20.016;2023-08-17T11:05:58;95495.94;;;24.23;100.00
54465;BME280;40374;49.480;20.016;2023-08-17T11:08:54;95512.97;;;23.97;100.00
54465;BME280;40374;49.480;20.016;2023-08-17T11:11:23;95527.13;;;23.42;100.00
54465;BME280;40374;49.480;20.016;2023-08-17T11:13:52;95524.94;;;23.07;100.00
54465;BME280;40374;49.480;20.016;2023-08-17T11:16:23;95538.22;;;22.81;100.00
54465;BME280;40374;49.480;20.016;2023-08-17T11:18:51;95543.00;;;22.59;100.00
54465;BME280;40374;49.480;20.016;2023-08-17T11:21:18;95555.81;;;22.31;100.00
54465;BME280;40374;49.480;20.016;2023-08-17T11:23:47;95543.69;;;22.32;100.00
54465;BME280;40374;49.480;20.016;2023-08-17T11:26:15;95565.09;;;22.17;100.00
54465;BME280;40374;49.480;20.016;2023-08-17T11:28:44;95555.06;;;22.09;100.00
54465;BME280;40374;49.480;20.016;2023-08-17T11:31:12;95570.09;;;22.03;100.00
54465;BME280;40374;49.480;20.016;2023-08-17T11:33:41;95560.91;;;21.86;100.00
54465;BME280;40374;49.480;20.016;2023-08-17T11:36:09;95556.13;;;21.96;100.00
54465;BME280;40374;49.480;20.016;2023-08-17T11:38:41;95548.72;;;21.84;100.00
54465;BME280;40374;49.480;20.016;2023-08-17T11:41:09;95545.31;;;21.99;100.00
54465;BME280;40374;49.480;20.016;2023-08-17T11:43:45;95540.41;;;21.93;100.00
54465;BME280;40374;49.480;20.016;2023-08-17T11:46:12;95516.66;;;21.97;100.00
54465;BME280;40374;49.480;20.016;2023-08-17T11:48:41;95515.75;;;21.93;100.00
54465;BME280;40374;49.480;20.016;2023-08-17T11:51:09;95517.47;;;21.97;100.00
54465;BME280;40374;49.480;20.016;2023-08-17T11:53:36;95514.84;;;22.01;100.00
54465;BME280;40374;49.480;20.016;2023-08-17T11:56:04;95517.38;;;22.06;100.00
54465;BME280;40374;49.480;20.016;2023-08-17T11:58:46;95510.72;;;21.95;100.00
54465;BME280;40374;49.480;20.016;2023-08-17T12:01:14;95507.28;;;21.85;100.00
54465;BME280;40374;49.480;20.016;2023-08-17T12:03:45;95503.28;;;21.83;100.00
54465;BME280;40374;49.480;20.016;2023-08-17T12:06:16;95487.44;;;21.88;100.00
54465;BME280;40374;49.480;20.016;2023-08-17T12:08:45;95476.94;;;21.91;100.00
54465;BME280;40374;49.480;20.016;2023-08-17T12:11:17;95461.19;;;21.87;100.00
54465;BME280;40374;49.480;20.016;2023-08-17T12:13:52;95456.63;;;21.92;100.00
54465;BME280;40374;49.480;20.016;2023-08-17T12:16:20;95438.63;;;22.03;100.00
54465;BME280;40374;49.480;20.016;2023-08-17T12:18:50;95449.56;;;22.03;100.00
54465;BME280;40374;49.480;20.016;2023-08-17T12:21:23;95439.41;;;22.03;100.00
54465;BME280;40374;49.480;20.016;2023-08-17T12:23:51;95447.75;;;22.07;100.00
54465;BME280;40374;49.480;20.016;2023-08-17T12:26:19;95436.13;;;22.35;100.00
54465;BME280;40374;49.480;20.016;2023-08-17T12:28:48;95426.50;;;22.16;100.00
54465;BME280;40374;49.480;20.016;2023-08-17T12:31:21;95427.09;;;22.34;100.00
54465;BME280;40374;49.480;20.016;2023-08-17T12:33:49;95421.50;;;22.43;100.00
54465;BME280;40374;49.480;20.016;2023-08-17T12:36:17;95419.31;;;22.61;100.00
54465;BME280;40374;49.480;20.016;2023-08-17T12:38:45;95411.38;;;22.72;100.00
54465;BME280;40374;49.480;20.016;2023-08-17T12:41:16;95422.63;;;22.54;100.00
54465;BME280;40374;49.480;20.016;2023-08-17T12:43:45;95419.31;;;22.48;100.00
54465;BME280;40374;49.480;20.016;2023-08-17T12:46:13;95415.09;;;22.51;100.00
54465;BME280;40374;49.480;20.016;2023-08-17T12:48:41;95399.34;;;22.36;100.00
54465;BME280;40374;49.480;20.016;2023-08-17T12:51:09;95392.72;;;22.12;100.00
54465;BME280;40374;49.480;20.016;2023-08-17T12:53:40;95392.28;;;22.35;100.00